createdAt,value
2022-10-11T00:00:15.697Z,86.90
2022-10-11T00:02:43.018Z,86.40
2022-10-11T00:05:10.463Z,86.10
2022-10-11T00:07:38.376Z,87.30
2022-10-11T00:10:07.522Z,86.60
2022-10-11T00:12:35.377Z,87.20
2022-10-11T00:15:04.900Z,86.20
2022-10-11T00:17:32.986Z,87.40
2022-10-11T00:20:00.521Z,88.40
2022-10-11T00:22:27.830Z,86.50
2022-10-11T00:24:55.227Z,86.40
2022-10-11T00:27:22.562Z,87.00
2022-10-11T00:29:49.969Z,87.20
2022-10-11T00:32:17.756Z,86.50
2022-10-11T00:34:45.085Z,87.30
2022-10-11T00:37:12.462Z,86.20
2022-10-11T00:39:39.788Z,87.20
2022-10-11T00:42:13.280Z,86.50
2022-10-11T00:44:46.622Z,88.30
2022-10-11T00:47:25.001Z,86.60
2022-10-11T00:50:00.975Z,89.30
2022-10-11T00:52:40.466Z,88.40
2022-10-11T00:55:12.504Z,88.40
2022-10-11T00:57:43.740Z,87.90
2022-10-11T01:00:13.818Z,89.10
2022-10-11T01:02:42.159Z,87.80
2022-10-11T01:05:28.656Z,87.50
2022-10-11T01:08:01.941Z,87.90
2022-10-11T01:10:29.515Z,88.40
2022-10-11T01:13:02.833Z,87.10
2022-10-11T01:15:38.836Z,88.00
2022-10-11T01:18:35.773Z,88.70
2022-10-11T01:21:26.021Z,88.20
2022-10-11T01:23:56.524Z,88.60
2022-10-11T01:26:35.589Z,88.80
2022-10-11T01:29:11.752Z,88.50
2022-10-11T01:31:49.616Z,88.20
2022-10-11T01:34:33.119Z,87.90
2022-10-11T01:37:08.414Z,88.90
2022-10-11T01:39:41.624Z,88.40
2022-10-11T01:42:12.294Z,88.40
2022-10-11T01:44:43.019Z,89.20
2022-10-11T01:47:10.381Z,89.60
2022-10-11T01:49:37.679Z,87.80
2022-10-11T01:52:07.208Z,87.30
2022-10-11T01:55:10.630Z,88.40
2022-10-11T01:58:02.120Z,89.30
2022-10-11T02:00:45.378Z,86.70
2022-10-11T02:03:39.647Z,89.30
2022-10-11T02:06:23.803Z,89.00
2022-10-11T02:09:17.100Z,88.70
2022-10-11T02:11:44.529Z,89.00
2022-10-11T02:14:20.515Z,88.20
2022-10-11T02:17:18.557Z,90.00
2022-10-11T02:19:50.318Z,89.30
2022-10-11T02:22:33.848Z,89.10
2022-10-11T02:25:05.752Z,89.80
2022-10-11T02:27:37.341Z,88.90
2022-10-11T02:30:07.596Z,89.90
2022-10-11T02:32:38.289Z,88.60
2022-10-11T02:35:06.571Z,89.20
2022-10-11T02:37:40.854Z,88.20
2022-10-11T02:40:37.526Z,87.10
2022-10-11T02:43:17.995Z,90.20
2022-10-11T02:45:50.971Z,88.20
2022-10-11T02:48:19.138Z,90.10
2022-10-11T02:50:47.209Z,88.40
2022-10-11T02:53:14.626Z,88.50
2022-10-11T02:55:42.019Z,88.80
2022-10-11T02:58:09.416Z,88.10
2022-10-11T03:00:36.781Z,88.00
2022-10-11T03:03:04.529Z,89.00
2022-10-11T03:05:37.085Z,88.60
2022-10-11T03:08:04.483Z,88.60
2022-10-11T03:10:31.798Z,89.10
2022-10-11T03:12:59.200Z,88.60
2022-10-11T03:15:26.631Z,88.40
2022-10-11T03:17:54.011Z,88.60
2022-10-11T03:20:21.494Z,88.10
2022-10-11T03:22:48.901Z,88.20
2022-10-11T03:25:17.243Z,88.10
2022-10-11T03:27:44.639Z,88.60
2022-10-11T03:30:17.323Z,87.90
2022-10-11T03:32:45.700Z,88.50
2022-10-11T03:35:13.157Z,88.30
2022-10-11T03:37:40.533Z,88.50
2022-10-11T03:40:09.793Z,89.30
2022-10-11T03:42:37.610Z,88.50
2022-10-11T03:45:08.237Z,88.40
2022-10-11T03:47:39.837Z,89.10
2022-10-11T03:50:08.860Z,90.00
2022-10-11T03:52:36.344Z,89.40
2022-10-11T03:55:04.082Z,89.30
2022-10-11T03:57:31.494Z,88.60
2022-10-11T03:59:58.782Z,89.70
2022-10-11T04:02:26.232Z,88.90
2022-10-11T04:04:53.519Z,89.00
2022-10-11T04:07:20.863Z,88.90
2022-10-11T04:09:48.422Z,89.20
2022-10-11T04:12:15.972Z,89.20
2022-10-11T04:14:43.265Z,89.30
2022-10-11T04:17:10.773Z,88.70
2022-10-11T04:19:38.140Z,90.00
2022-10-11T04:22:05.766Z,89.50
2022-10-11T04:24:33.570Z,89.20
2022-10-11T04:27:00.907Z,89.40
2022-10-11T04:29:32.377Z,88.70
2022-10-11T04:32:00.306Z,88.50
2022-10-11T04:34:27.664Z,90.00
2022-10-11T04:36:55.003Z,88.60
2022-10-11T04:39:22.322Z,90.00
2022-10-11T04:41:49.596Z,88.80
2022-10-11T04:44:16.918Z,88.60
2022-10-11T04:46:44.238Z,88.90
2022-10-11T04:49:11.622Z,89.30
2022-10-11T04:51:38.960Z,88.80
2022-10-11T04:54:06.317Z,90.20
2022-10-11T04:56:33.643Z,89.80
2022-10-11T04:59:01.019Z,90.00
2022-10-11T05:01:28.331Z,89.40
2022-10-11T05:03:55.612Z,89.10
2022-10-11T05:06:22.987Z,90.00
2022-10-11T05:08:50.348Z,89.40
2022-10-11T05:11:18.117Z,90.00
2022-10-11T05:13:46.804Z,90.30
2022-10-11T05:16:16.008Z,90.10
2022-10-11T05:18:43.886Z,90.00
2022-10-11T05:21:23.193Z,90.10
2022-10-11T05:23:52.030Z,90.60
2022-10-11T05:26:20.239Z,90.10
2022-10-11T05:28:48.103Z,90.20
2022-10-11T05:31:16.529Z,90.00
2022-10-11T05:33:44.505Z,89.80
2022-10-11T05:36:12.799Z,90.10
2022-10-11T05:38:40.688Z,90.00
2022-10-11T05:41:11.265Z,89.70
2022-10-11T05:43:38.566Z,89.30
2022-10-11T05:46:06.705Z,89.60
2022-10-11T05:48:34.433Z,90.00
2022-10-11T05:51:05.108Z,90.00
2022-10-11T05:53:33.291Z,90.40
2022-10-11T05:56:00.643Z,90.20
2022-10-11T05:58:28.116Z,89.70
2022-10-11T06:00:56.894Z,90.00
2022-10-11T06:03:24.553Z,89.70
2022-10-11T06:05:56.504Z,90.10
2022-10-11T06:08:24.231Z,90.00
2022-10-11T06:10:51.613Z,90.10
2022-10-11T06:13:18.921Z,90.10
2022-10-11T06:15:46.208Z,90.30
2022-10-11T06:18:13.811Z,90.10
2022-10-11T06:20:41.107Z,90.50
2022-10-11T06:23:08.567Z,90.10
2022-10-11T06:25:35.948Z,90.40
2022-10-11T06:28:03.274Z,90.00
2022-10-11T06:30:30.787Z,90.10
2022-10-11T06:33:01.150Z,90.20
2022-10-11T06:35:31.845Z,90.30
2022-10-11T06:37:59.156Z,90.20
2022-10-11T06:40:26.593Z,90.20
2022-10-11T06:42:53.907Z,90.20
2022-10-11T06:45:21.242Z,90.50
2022-10-11T06:47:48.588Z,90.20
2022-10-11T06:50:15.967Z,90.50
2022-10-11T06:52:43.363Z,90.50
2022-10-11T06:55:10.707Z,90.80
2022-10-11T06:57:38.164Z,90.40
2022-10-11T07:00:10.306Z,90.40
2022-10-11T07:02:40.039Z,90.60
2022-10-11T07:05:08.579Z,90.50
2022-10-11T07:07:35.901Z,90.40
2022-10-11T07:10:03.435Z,90.00
2022-10-11T07:12:30.839Z,90.50
2022-10-11T07:14:58.205Z,90.50
2022-10-11T07:17:26.039Z,90.50
2022-10-11T07:19:53.383Z,90.70
2022-10-11T07:22:20.703Z,90.80
2022-10-11T07:24:49.147Z,90.40
2022-10-11T07:27:16.487Z,90.50
2022-10-11T07:29:43.973Z,90.80
2022-10-11T07:32:11.424Z,90.40
2022-10-11T07:34:38.721Z,90.50
2022-10-11T07:37:06.055Z,90.30
2022-10-11T07:39:33.334Z,90.60
2022-10-11T07:42:00.686Z,90.40
2022-10-11T07:44:28.163Z,90.30
2022-10-11T07:46:55.536Z,90.30
2022-10-11T07:49:22.908Z,91.00
2022-10-11T07:51:50.299Z,90.70
2022-10-11T07:54:17.670Z,90.60
2022-10-11T07:56:45.057Z,90.70
2022-10-11T07:59:12.517Z,90.70
2022-10-11T08:01:39.935Z,90.80
2022-10-11T08:04:07.347Z,90.60
2022-10-11T08:06:36.527Z,91.00
2022-10-11T08:09:05.613Z,90.50
2022-10-11T08:11:36.231Z,90.90
2022-10-11T08:14:08.487Z,91.60
2022-10-11T08:16:36.603Z,91.10
2022-10-11T08:19:04.449Z,90.80
2022-10-11T08:21:32.283Z,90.70
2022-10-11T08:24:01.177Z,90.70
2022-10-11T08:26:28.500Z,90.70
2022-10-11T08:28:55.984Z,90.60
2022-10-11T08:31:23.570Z,91.10
2022-10-11T08:33:50.915Z,90.60
2022-10-11T08:36:18.236Z,90.70
2022-10-11T08:38:45.766Z,90.70
2022-10-11T08:41:40.107Z,91.30
2022-10-11T08:44:16.400Z,90.40
2022-10-11T08:46:48.744Z,90.30
2022-10-11T08:49:19.896Z,91.00
2022-10-11T08:51:50.780Z,91.00
2022-10-11T08:54:27.090Z,90.80
2022-10-11T08:56:54.541Z,91.10
2022-10-11T08:59:44.874Z,90.50
2022-10-11T09:02:24.257Z,90.90
2022-10-11T09:04:55.297Z,90.60
2022-10-11T09:07:42.415Z,90.40
2022-10-11T09:10:24.921Z,90.40
2022-10-11T09:13:46.384Z,89.90
2022-10-11T09:16:13.792Z,90.30
2022-10-11T09:19:05.690Z,89.80
2022-10-11T09:21:52.539Z,90.10
2022-10-11T09:24:34.889Z,90.30
2022-10-11T09:27:50.319Z,89.50
2022-10-11T09:30:17.984Z,88.90
2022-10-11T09:32:51.299Z,88.00
2022-10-11T09:35:22.646Z,87.70
2022-10-11T09:38:14.319Z,87.00
2022-10-11T09:41:33.225Z,86.80
2022-10-11T09:44:00.589Z,87.00
2022-10-11T09:46:41.460Z,86.40
2022-10-11T09:49:13.151Z,85.70
2022-10-11T09:51:46.825Z,86.40
2022-10-11T09:54:14.219Z,85.90
2022-10-11T09:56:44.265Z,85.20
2022-10-11T09:59:35.003Z,85.10
2022-10-11T10:02:13.006Z,85.30
2022-10-11T10:05:00.773Z,85.00
2022-10-11T10:07:30.401Z,84.50
2022-10-11T10:09:58.169Z,84.50
2022-10-11T10:12:30.575Z,84.70
2022-10-11T10:15:08.110Z,84.20
2022-10-11T10:17:36.408Z,84.10
2022-10-11T10:20:05.689Z,84.10
2022-10-11T10:22:35.511Z,83.10
2022-10-11T10:25:07.985Z,82.80
2022-10-11T10:27:35.646Z,82.70
2022-10-11T10:30:09.159Z,83.10
2022-10-11T10:32:53.388Z,82.90
2022-10-11T10:35:30.082Z,82.10
2022-10-11T10:38:33.053Z,82.40
2022-10-11T10:41:06.885Z,81.60
2022-10-11T10:43:36.600Z,81.40
2022-10-11T10:46:39.582Z,81.20
2022-10-11T10:49:52.647Z,80.60
2022-10-11T10:52:58.005Z,80.30
2022-10-11T10:55:31.443Z,79.90
2022-10-11T10:58:12.898Z,79.90
2022-10-11T11:01:01.471Z,79.40
2022-10-11T11:03:42.492Z,79.50
2022-10-11T11:06:31.547Z,78.90
2022-10-11T11:09:16.563Z,78.60
2022-10-11T11:11:56.388Z,78.40
2022-10-11T11:14:38.796Z,78.00
2022-10-11T11:17:23.996Z,77.50
2022-10-11T11:20:03.424Z,77.20
2022-10-11T11:22:41.018Z,77.30
2022-10-11T11:25:45.076Z,77.20
2022-10-11T11:28:33.187Z,77.00
2022-10-11T11:31:12.395Z,76.30
2022-10-11T11:34:02.244Z,75.90
2022-10-11T11:36:54.236Z,75.30
2022-10-11T11:39:32.670Z,73.30
2022-10-11T11:42:20.206Z,73.50
2022-10-11T11:44:50.338Z,73.90
2022-10-11T11:47:20.748Z,73.10
2022-10-11T11:50:28.629Z,73.40
2022-10-11T11:53:12.381Z,72.30
2022-10-11T11:55:58.073Z,72.80
2022-10-11T11:58:43.912Z,72.80
2022-10-11T12:01:34.545Z,73.30
2022-10-11T12:04:09.104Z,72.00
2022-10-11T12:06:47.722Z,71.70
2022-10-11T12:09:23.647Z,72.40
2022-10-11T12:11:56.043Z,72.50
2022-10-11T12:14:41.830Z,72.10
2022-10-11T12:17:14.157Z,72.10
2022-10-11T12:19:58.515Z,72.40
2022-10-11T12:22:28.959Z,71.60
2022-10-11T12:25:18.368Z,71.50
2022-10-11T12:30:47.546Z,69.50
2022-10-11T12:33:21.426Z,70.30
2022-10-11T12:35:54.802Z,69.80
2022-10-11T12:38:39.940Z,69.90
2022-10-11T12:41:10.235Z,69.60
2022-10-11T12:43:49.460Z,68.90
2022-10-11T12:46:29.103Z,68.50
2022-10-11T12:49:25.671Z,68.50
2022-10-11T12:51:58.804Z,68.60
2022-10-11T12:54:38.182Z,69.00
2022-10-11T12:57:11.833Z,69.00
2022-10-11T12:59:44.807Z,69.30
2022-10-11T13:02:39.207Z,69.20
2022-10-11T13:05:23.632Z,69.40
2022-10-11T13:07:53.760Z,69.80
2022-10-11T13:10:42.609Z,69.50
2022-10-11T13:13:21.984Z,69.60
2022-10-11T13:15:52.444Z,69.50
2022-10-11T13:18:22.823Z,69.30
2022-10-11T13:20:50.977Z,68.80
2022-10-11T13:23:38.177Z,68.70
2022-10-11T13:26:05.887Z,68.70
2022-10-11T13:28:36.478Z,68.80
2022-10-11T13:31:05.711Z,69.20
2022-10-11T13:33:38.223Z,68.20
2022-10-11T13:36:12.886Z,68.30
2022-10-11T13:38:40.739Z,68.60
2022-10-11T13:41:12.298Z,68.50
2022-10-11T13:43:40.742Z,68.30
2022-10-11T13:46:17.668Z,68.00
2022-10-11T13:48:45.629Z,67.80
2022-10-11T13:51:26.990Z,67.90
2022-10-11T13:54:02.044Z,67.90
2022-10-11T13:56:33.208Z,67.90
2022-10-11T13:59:01.573Z,68.00
2022-10-11T14:01:40.864Z,68.30
2022-10-11T14:04:11.213Z,68.30
2022-10-11T14:07:00.341Z,68.20
2022-10-11T14:09:34.652Z,68.40
2022-10-11T14:12:27.034Z,68.40
2022-10-11T14:14:54.564Z,68.40
2022-10-11T14:17:32.397Z,68.50
2022-10-11T14:20:14.484Z,68.50
2022-10-11T14:22:41.847Z,68.50
2022-10-11T14:25:09.210Z,68.60
2022-10-11T14:27:37.310Z,69.60
2022-10-11T14:30:31.204Z,68.70
2022-10-11T14:33:01.462Z,68.50
2022-10-11T14:35:32.602Z,68.80
2022-10-11T14:38:00.112Z,68.60
2022-10-11T14:40:30.373Z,68.60
2022-10-11T14:42:58.060Z,68.40
2022-10-11T14:45:25.714Z,68.30
2022-10-11T14:47:53.510Z,68.20
2022-10-11T14:50:42.229Z,68.40
2022-10-11T14:53:11.356Z,68.10
2022-10-11T14:55:40.611Z,68.40
2022-10-11T14:58:09.827Z,68.40
2022-10-11T15:00:37.463Z,68.70
2022-10-11T15:03:07.276Z,68.60
2022-10-11T15:05:35.441Z,67.80
2022-10-11T15:08:03.937Z,67.60
2022-10-11T15:10:35.830Z,67.40
2022-10-11T15:13:04.679Z,67.60
2022-10-11T15:15:35.357Z,67.20
2022-10-11T15:18:05.119Z,67.30
2022-10-11T15:20:33.983Z,67.10
2022-10-11T15:23:02.084Z,67.00
2022-10-11T15:25:29.890Z,67.30
2022-10-11T15:27:57.570Z,67.20
2022-10-11T15:30:29.046Z,66.90
2022-10-11T15:32:56.646Z,66.90
2022-10-11T15:35:25.128Z,66.90
2022-10-11T15:37:54.515Z,66.90
2022-10-11T15:40:25.179Z,67.90
2022-10-11T15:42:54.262Z,66.50
2022-10-11T15:45:23.297Z,66.70
2022-10-11T15:47:50.908Z,66.70
2022-10-11T15:50:37.494Z,67.00
2022-10-11T15:53:07.721Z,66.50
2022-10-11T15:55:40.217Z,67.00
2022-10-11T15:58:14.880Z,67.20
2022-10-11T16:00:43.563Z,67.00
2022-10-11T16:03:16.224Z,67.10
2022-10-11T16:05:44.218Z,67.30
2022-10-11T16:08:12.022Z,67.60
2022-10-11T16:10:41.133Z,67.40
2022-10-11T16:13:09.608Z,67.50
2022-10-11T16:15:38.916Z,67.60
2022-10-11T16:18:07.807Z,67.60
2022-10-11T16:20:42.112Z,67.60
2022-10-11T16:23:09.951Z,67.70
2022-10-11T16:25:37.988Z,67.80
2022-10-11T16:28:07.856Z,67.80
2022-10-11T16:30:39.187Z,68.50
2022-10-11T16:33:06.606Z,68.20
2022-10-11T16:35:34.113Z,67.80
2022-10-11T16:38:01.857Z,68.60
2022-10-11T16:40:30.070Z,68.70
2022-10-11T16:42:57.808Z,68.80
2022-10-11T16:45:25.129Z,68.80
2022-10-11T16:47:52.612Z,69.10
2022-10-11T16:50:20.003Z,69.30
2022-10-11T16:52:47.390Z,69.30
2022-10-11T16:55:14.821Z,69.60
2022-10-11T16:57:42.325Z,69.60
2022-10-11T17:00:10.225Z,69.60
2022-10-11T17:02:37.736Z,70.00
2022-10-11T17:05:05.442Z,70.00
2022-10-11T17:07:32.857Z,70.10
2022-10-11T17:10:01.121Z,70.20
2022-10-11T17:12:29.001Z,70.40
2022-10-11T17:14:56.471Z,70.60
2022-10-11T17:17:24.005Z,71.20
2022-10-11T17:19:51.388Z,70.90
2022-10-11T17:22:19.796Z,71.40
2022-10-11T17:24:47.436Z,72.30
2022-10-11T17:27:14.859Z,71.20
2022-10-11T17:29:42.323Z,71.40
2022-10-11T17:32:09.679Z,71.50
2022-10-11T17:34:37.079Z,71.60
2022-10-11T17:37:04.776Z,71.90
2022-10-11T17:39:32.273Z,71.80
2022-10-11T17:42:05.022Z,72.00
2022-10-11T17:44:32.391Z,72.00
2022-10-11T17:47:00.377Z,72.20
2022-10-11T17:49:27.852Z,72.40
2022-10-11T17:51:56.592Z,73.10
2022-10-11T17:54:24.404Z,72.60
2022-10-11T17:56:51.878Z,72.90
2022-10-11T17:59:21.488Z,74.60
2022-10-11T18:01:50.258Z,73.00
2022-10-11T18:04:20.361Z,73.20
2022-10-11T18:06:48.525Z,73.50
2022-10-11T18:09:18.375Z,74.60
2022-10-11T18:11:46.360Z,73.10
2022-10-11T18:14:14.420Z,72.50
2022-10-11T18:16:42.754Z,73.90
2022-10-11T18:19:14.102Z,73.80
2022-10-11T18:21:41.925Z,73.60
2022-10-11T18:24:15.229Z,74.30
2022-10-11T18:26:44.669Z,74.20
2022-10-11T18:29:12.731Z,74.00
2022-10-11T18:31:40.907Z,74.30
2022-10-11T18:34:10.770Z,74.10
2022-10-11T18:36:38.983Z,74.30
2022-10-11T18:39:09.323Z,74.20
2022-10-11T18:41:39.383Z,75.70
2022-10-11T18:44:08.664Z,74.90
2022-10-11T18:46:36.510Z,74.80
2022-10-11T18:49:04.250Z,75.00
2022-10-11T18:51:34.612Z,75.20
2022-10-11T18:54:02.701Z,75.10
2022-10-11T18:56:31.778Z,75.30
2022-10-11T18:58:59.425Z,75.20
2022-10-11T19:01:31.761Z,75.20
2022-10-11T19:04:02.011Z,75.20
2022-10-11T19:06:34.746Z,75.40
2022-10-11T19:09:06.250Z,75.80
2022-10-11T19:11:34.333Z,75.70
2022-10-11T19:14:07.847Z,75.50
2022-10-11T19:16:37.818Z,75.60
2022-10-11T19:19:06.015Z,75.90
2022-10-11T19:21:33.892Z,75.60
2022-10-11T19:24:01.692Z,77.00
2022-10-11T19:26:33.543Z,76.50
2022-10-11T19:29:16.001Z,76.40
2022-10-11T19:31:48.396Z,77.90
2022-10-11T19:34:16.261Z,76.30
2022-10-11T19:36:44.260Z,76.50
2022-10-11T19:39:14.297Z,76.30
2022-10-11T19:41:42.461Z,77.00
2022-10-11T19:44:10.327Z,77.70
2022-10-11T19:46:50.975Z,76.70
2022-10-11T19:49:22.689Z,76.80
2022-10-11T19:51:50.889Z,77.70
2022-10-11T19:54:18.451Z,77.20
2022-10-11T19:56:46.016Z,77.20
2022-10-11T19:59:14.659Z,77.10
2022-10-11T20:01:44.672Z,77.10
2022-10-11T20:04:39.619Z,77.40
2022-10-11T20:07:03.294Z,77.40
2022-10-11T20:09:31.181Z,77.50
2022-10-11T20:11:59.310Z,77.70
2022-10-11T20:14:26.807Z,77.70
2022-10-11T20:16:54.357Z,77.60
2022-10-11T20:19:25.085Z,77.80
2022-10-11T20:21:55.298Z,77.80
2022-10-11T20:24:22.786Z,78.30
2022-10-11T20:26:50.177Z,78.10
2022-10-11T20:29:17.504Z,78.80
2022-10-11T20:31:45.036Z,79.00
2022-10-11T20:34:13.315Z,78.20
2022-10-11T20:36:40.724Z,78.20
2022-10-11T20:39:08.240Z,79.60
2022-10-11T20:41:39.734Z,79.40
2022-10-11T20:44:09.081Z,78.70
2022-10-11T20:46:39.411Z,79.90
2022-10-11T20:49:09.730Z,79.20
2022-10-11T20:51:38.836Z,80.10
2022-10-11T20:54:06.496Z,79.10
2022-10-11T20:56:34.882Z,78.90
2022-10-11T20:59:02.560Z,79.30
2022-10-11T21:01:32.540Z,79.20
2022-10-11T21:04:01.687Z,79.60
2022-10-11T21:06:30.848Z,80.30
2022-10-11T21:08:59.428Z,80.20
2022-10-11T21:11:32.228Z,79.50
2022-10-11T21:14:02.059Z,80.50
2022-10-11T21:16:29.899Z,79.80
2022-10-11T21:18:59.135Z,80.00
2022-10-11T21:21:27.979Z,80.60
2022-10-11T21:23:57.132Z,80.70
2022-10-11T21:26:25.068Z,79.90
2022-10-11T21:28:52.670Z,81.30
2022-10-11T21:31:21.706Z,79.90
2022-10-11T21:33:49.420Z,81.40
2022-10-11T21:36:19.147Z,80.10
2022-10-11T21:38:46.842Z,80.50
2022-10-11T21:41:16.784Z,79.80
2022-10-11T21:43:44.399Z,80.60
2022-10-11T21:46:18.908Z,80.00
2022-10-11T21:48:46.725Z,81.40
2022-10-11T21:51:22.957Z,80.50
2022-10-11T21:53:51.215Z,81.80
2022-10-11T21:56:18.939Z,80.30
2022-10-11T21:58:50.435Z,80.40
2022-10-11T22:01:19.751Z,81.70
2022-10-11T22:03:47.504Z,80.80
2022-10-11T22:06:15.565Z,80.70
2022-10-11T22:08:43.173Z,81.20
2022-10-11T22:11:11.105Z,80.80
2022-10-11T22:13:38.657Z,81.00
2022-10-11T22:16:08.390Z,81.20
2022-10-11T22:18:36.260Z,81.40
2022-10-11T22:21:10.136Z,81.20
2022-10-11T22:23:37.663Z,82.30
2022-10-11T22:26:11.343Z,81.40
2022-10-11T22:28:38.910Z,82.90
2022-10-11T22:31:08.161Z,82.00
2022-10-11T22:33:36.186Z,81.80
2022-10-11T22:36:06.355Z,81.80
2022-10-11T22:38:36.653Z,81.90
2022-10-11T22:41:04.055Z,82.00
2022-10-11T22:43:31.837Z,81.50
2022-10-11T22:45:59.272Z,81.80
2022-10-11T22:48:26.641Z,82.00
2022-10-11T22:50:54.704Z,81.80
2022-10-11T22:53:22.395Z,81.90
2022-10-11T22:55:49.750Z,81.80
2022-10-11T22:58:26.640Z,81.80
2022-10-11T23:00:54.059Z,82.70
2022-10-11T23:03:21.473Z,83.40
2022-10-11T23:05:58.675Z,83.60
2022-10-11T23:08:26.382Z,84.60
2022-10-11T23:10:53.911Z,82.90
2022-10-11T23:13:21.486Z,82.20
2022-10-11T23:15:48.932Z,82.90
2022-10-11T23:18:16.799Z,83.10
2022-10-11T23:20:44.613Z,83.20
2022-10-11T23:23:12.048Z,82.50
2022-10-11T23:25:39.465Z,82.30
2022-10-11T23:28:06.819Z,82.00
2022-10-11T23:30:34.167Z,82.40
2022-10-11T23:33:01.576Z,82.30
2022-10-11T23:35:28.916Z,83.30
2022-10-11T23:37:56.264Z,82.40
2022-10-11T23:40:23.635Z,83.30
2022-10-11T23:42:51.068Z,82.50
2022-10-11T23:45:18.340Z,83.10
2022-10-11T23:47:45.752Z,82.50
2022-10-11T23:50:13.106Z,82.90
2022-10-11T23:52:40.537Z,82.70
2022-10-11T23:55:08.283Z,83.50
2022-10-11T23:57:35.761Z,83.00
